sensor_id;sensor_type;location;lat;lon;timestamp;P1;durP1;ratioP1;P2;durP2;ratioP2
64188;SDS011;50493;50.970;10.082;2023-04-28T00:00:23;9.18;;;4.80;;
64188;SDS011;50493;50.970;10.082;2023-04-28T00:02:49;7.65;;;4.57;;
64188;SDS011;50493;50.970;10.082;2023-04-28T00:05:16;8.43;;;5.15;;
64188;SDS011;50493;50.970;10.082;2023-04-28T00:07:41;7.78;;;4.65;;
64188;SDS011;50493;50.970;10.082;2023-04-28T00:10:07;8.60;;;4.53;;
64188;SDS011;50493;50.970;10.082;2023-04-28T00:12:33;6.97;;;4.68;;
64188;SDS011;50493;50.970;10.082;2023-04-28T00:14:58;8.25;;;5.07;;
64188;SDS011;50493;50.970;10.082;2023-04-28T00:17:24;8.77;;;4.80;;
64188;SDS011;50493;50.970;10.082;2023-04-28T00:19:49;8.52;;;4.35;;
64188;SDS011;50493;50.970;10.082;2023-04-28T00:22:16;9.43;;;5.43;;
64188;SDS011;50493;50.970;10.082;2023-04-28T00:24:41;7.93;;;5.10;;
64188;SDS011;50493;50.970;10.082;2023-04-28T00:27:06;9.45;;;5.75;;
64188;SDS011;50493;50.970;10.082;2023-04-28T00:29:32;7.70;;;4.95;;
64188;SDS011;50493;50.970;10.082;2023-04-28T00:31:57;9.45;;;6.07;;
64188;SDS011;50493;50.970;10.082;2023-04-28T00:34:22;7.65;;;5.30;;
64188;SDS011;50493;50.970;10.082;2023-04-28T00:36:48;7.95;;;5.00;;
64188;SDS011;50493;50.970;10.082;2023-04-28T00:39:15;10.07;;;5.78;;
64188;SDS011;50493;50.970;10.082;2023-04-28T00:41:42;8.07;;;5.22;;
64188;SDS011;50493;50.970;10.082;2023-04-28T00:44:07;7.00;;;4.88;;
64188;SDS011;50493;50.970;10.082;2023-04-28T00:46:33;10.55;;;6.65;;
64188;SDS011;50493;50.970;10.082;2023-04-28T00:48:58;11.93;;;7.25;;
64188;SDS011;50493;50.970;10.082;2023-04-28T00:51:24;9.32;;;5.70;;
64188;SDS011;50493;50.970;10.082;2023-04-28T00:53:51;10.25;;;6.40;;
64188;SDS011;50493;50.970;10.082;2023-04-28T00:56:18;10.68;;;6.22;;
64188;SDS011;50493;50.970;10.082;2023-04-28T00:58:43;8.73;;;4.88;;
64188;SDS011;50493;50.970;10.082;2023-04-28T01:01:09;7.25;;;4.82;;
64188;SDS011;50493;50.970;10.082;2023-04-28T01:03:35;11.40;;;6.97;;
64188;SDS011;50493;50.970;10.082;2023-04-28T01:06:02;8.95;;;5.05;;
64188;SDS011;50493;50.970;10.082;2023-04-28T01:08:29;9.45;;;5.20;;
64188;SDS011;50493;50.970;10.082;2023-04-28T01:10:54;8.73;;;5.03;;
64188;SDS011;50493;50.970;10.082;2023-04-28T01:13:21;8.88;;;5.35;;
64188;SDS011;50493;50.970;10.082;2023-04-28T01:15:46;7.72;;;5.00;;
64188;SDS011;50493;50.970;10.082;2023-04-28T01:18:12;8.73;;;5.30;;
64188;SDS011;50493;50.970;10.082;2023-04-28T01:20:40;11.30;;;6.28;;
64188;SDS011;50493;50.970;10.082;2023-04-28T01:23:05;10.48;;;6.20;;
64188;SDS011;50493;50.970;10.082;2023-04-28T01:25:37;11.20;;;5.80;;
64188;SDS011;50493;50.970;10.082;2023-04-28T01:28:02;10.23;;;6.47;;
64188;SDS011;50493;50.970;10.082;2023-04-28T01:30:28;8.95;;;5.40;;
64188;SDS011;50493;50.970;10.082;2023-04-28T01:32:53;8.25;;;5.85;;
64188;SDS011;50493;50.970;10.082;2023-04-28T01:35:18;10.20;;;6.30;;
64188;SDS011;50493;50.970;10.082;2023-04-28T01:37:44;9.65;;;4.97;;
64188;SDS011;50493;50.970;10.082;2023-04-28T01:40:10;8.23;;;5.00;;
64188;SDS011;50493;50.970;10.082;2023-04-28T01:42:38;11.57;;;7.22;;
64188;SDS011;50493;50.970;10.082;2023-04-28T01:45:03;9.18;;;5.38;;
64188;SDS011;50493;50.970;10.082;2023-04-28T01:47:29;8.35;;;5.60;;
64188;SDS011;50493;50.970;10.082;2023-04-28T01:49:54;7.95;;;5.40;;
64188;SDS011;50493;50.970;10.082;2023-04-28T01:52:20;7.50;;;4.95;;
64188;SDS011;50493;50.970;10.082;2023-04-28T01:54:47;8.63;;;5.47;;
64188;SDS011;50493;50.970;10.082;2023-04-28T01:57:12;11.35;;;6.50;;
64188;SDS011;50493;50.970;10.082;2023-04-28T01:59:39;12.95;;;6.68;;
64188;SDS011;50493;50.970;10.082;2023-04-28T02:02:04;8.95;;;6.22;;
64188;SDS011;50493;50.970;10.082;2023-04-28T02:04:30;10.65;;;5.95;;
64188;SDS011;50493;50.970;10.082;2023-04-28T02:06:55;13.15;;;7.20;;
64188;SDS011;50493;50.970;10.082;2023-04-28T02:09:20;9.45;;;6.43;;
64188;SDS011;50493;50.970;10.082;2023-04-28T02:11:46;9.20;;;5.30;;
64188;SDS011;50493;50.970;10.082;2023-04-28T02:14:11;11.52;;;7.18;;
64188;SDS011;50493;50.970;10.082;2023-04-28T02:16:38;12.27;;;6.60;;
64188;SDS011;50493;50.970;10.082;2023-04-28T02:19:03;10.60;;;6.50;;
64188;SDS011;50493;50.970;10.082;2023-04-28T02:21:28;9.88;;;5.38;;
64188;SDS011;50493;50.970;10.082;2023-04-28T02:23:54;10.38;;;6.80;;
64188;SDS011;50493;50.970;10.082;2023-04-28T02:26:20;9.60;;;5.68;;
64188;SDS011;50493;50.970;10.082;2023-04-28T02:28:46;10.13;;;5.90;;
64188;SDS011;50493;50.970;10.082;2023-04-28T02:31:13;8.43;;;5.55;;
64188;SDS011;50493;50.970;10.082;2023-04-28T02:33:39;9.55;;;5.78;;
64188;SDS011;50493;50.970;10.082;2023-04-28T02:36:06;11.18;;;5.78;;
64188;SDS011;50493;50.970;10.082;2023-04-28T02:38:32;12.45;;;6.78;;
64188;SDS011;50493;50.970;10.082;2023-04-28T02:40:59;8.00;;;5.30;;
64188;SDS011;50493;50.970;10.082;2023-04-28T02:43:25;8.68;;;5.65;;
64188;SDS011;50493;50.970;10.082;2023-04-28T02:45:50;11.52;;;7.00;;
64188;SDS011;50493;50.970;10.082;2023-04-28T02:48:16;11.48;;;5.93;;
64188;SDS011;50493;50.970;10.082;2023-04-28T02:50:43;13.35;;;7.65;;
64188;SDS011;50493;50.970;10.082;2023-04-28T02:53:10;10.80;;;6.30;;
64188;SDS011;50493;50.970;10.082;2023-04-28T02:55:35;13.18;;;6.95;;
64188;SDS011;50493;50.970;10.082;2023-04-28T02:58:00;11.68;;;6.00;;
64188;SDS011;50493;50.970;10.082;2023-04-28T03:00:26;8.52;;;5.32;;
64188;SDS011;50493;50.970;10.082;2023-04-28T03:02:51;12.32;;;5.95;;
64188;SDS011;50493;50.970;10.082;2023-04-28T03:05:17;9.10;;;5.82;;
64188;SDS011;50493;50.970;10.082;2023-04-28T03:07:43;8.43;;;5.65;;
64188;SDS011;50493;50.970;10.082;2023-04-28T03:10:09;8.98;;;5.50;;
64188;SDS011;50493;50.970;10.082;2023-04-28T03:12:34;9.93;;;6.47;;
64188;SDS011;50493;50.970;10.082;2023-04-28T03:15:00;9.13;;;5.90;;
64188;SDS011;50493;50.970;10.082;2023-04-28T03:17:25;8.98;;;5.97;;
64188;SDS011;50493;50.970;10.082;2023-04-28T03:19:51;11.27;;;5.90;;
64188;SDS011;50493;50.970;10.082;2023-04-28T03:22:16;10.13;;;6.25;;
64188;SDS011;50493;50.970;10.082;2023-04-28T03:24:43;9.27;;;5.97;;
64188;SDS011;50493;50.970;10.082;2023-04-28T03:27:08;10.15;;;6.90;;
64188;SDS011;50493;50.970;10.082;2023-04-28T03:29:34;10.90;;;7.45;;
64188;SDS011;50493;50.970;10.082;2023-04-28T03:31:59;9.13;;;6.10;;
64188;SDS011;50493;50.970;10.082;2023-04-28T03:34:24;13.43;;;7.90;;
64188;SDS011;50493;50.970;10.082;2023-04-28T03:36:50;12.52;;;8.60;;
64188;SDS011;50493;50.970;10.082;2023-04-28T03:39:15;18.30;;;10.50;;
64188;SDS011;50493;50.970;10.082;2023-04-28T03:41:42;11.13;;;6.78;;
64188;SDS011;50493;50.970;10.082;2023-04-28T03:44:07;10.10;;;6.30;;
64188;SDS011;50493;50.970;10.082;2023-04-28T03:46:32;9.65;;;6.50;;
64188;SDS011;50493;50.970;10.082;2023-04-28T03:48:58;9.50;;;6.32;;
64188;SDS011;50493;50.970;10.082;2023-04-28T03:51:24;10.93;;;6.68;;
64188;SDS011;50493;50.970;10.082;2023-04-28T03:53:49;11.30;;;6.95;;
64188;SDS011;50493;50.970;10.082;2023-04-28T03:56:15;11.20;;;6.70;;
64188;SDS011;50493;50.970;10.082;2023-04-28T03:58:42;9.07;;;6.18;;
64188;SDS011;50493;50.970;10.082;2023-04-28T04:01:07;10.00;;;6.30;;
64188;SDS011;50493;50.970;10.082;2023-04-28T04:03:32;12.70;;;6.93;;
64188;SDS011;50493;50.970;10.082;2023-04-28T04:05:58;11.60;;;7.07;;
64188;SDS011;50493;50.970;10.082;2023-04-28T04:08:23;11.48;;;7.00;;
64188;SDS011;50493;50.970;10.082;2023-04-28T04:10:48;11.57;;;7.50;;
64188;SDS011;50493;50.970;10.082;2023-04-28T04:13:14;11.43;;;6.60;;
64188;SDS011;50493;50.970;10.082;2023-04-28T04:15:40;13.15;;;8.15;;
64188;SDS011;50493;50.970;10.082;2023-04-28T04:18:06;12.35;;;7.50;;
64188;SDS011;50493;50.970;10.082;2023-04-28T04:20:31;11.00;;;7.20;;
64188;SDS011;50493;50.970;10.082;2023-04-28T04:22:56;10.25;;;6.65;;
64188;SDS011;50493;50.970;10.082;2023-04-28T04:25:22;12.38;;;7.50;;
64188;SDS011;50493;50.970;10.082;2023-04-28T04:27:47;11.52;;;7.15;;
64188;SDS011;50493;50.970;10.082;2023-04-28T04:30:13;15.68;;;9.13;;
64188;SDS011;50493;50.970;10.082;2023-04-28T04:32:39;10.82;;;6.50;;
64188;SDS011;50493;50.970;10.082;2023-04-28T04:35:05;11.43;;;6.75;;
64188;SDS011;50493;50.970;10.082;2023-04-28T04:37:31;10.38;;;7.07;;
64188;SDS011;50493;50.970;10.082;2023-04-28T04:39:57;15.20;;;8.95;;
64188;SDS011;50493;50.970;10.082;2023-04-28T04:42:22;13.15;;;7.95;;
64188;SDS011;50493;50.970;10.082;2023-04-28T04:44:48;16.48;;;10.55;;
64188;SDS011;50493;50.970;10.082;2023-04-28T04:47:13;12.98;;;8.30;;
64188;SDS011;50493;50.970;10.082;2023-04-28T04:49:40;12.55;;;8.32;;
64188;SDS011;50493;50.970;10.082;2023-04-28T04:52:05;13.70;;;8.80;;
64188;SDS011;50493;50.970;10.082;2023-04-28T04:54:31;17.77;;;9.18;;
64188;SDS011;50493;50.970;10.082;2023-04-28T04:56:56;14.20;;;8.50;;
64188;SDS011;50493;50.970;10.082;2023-04-28T04:59:21;13.52;;;8.50;;
64188;SDS011;50493;50.970;10.082;2023-04-28T05:01:47;12.10;;;7.75;;
64188;SDS011;50493;50.970;10.082;2023-04-28T05:04:12;14.95;;;9.10;;
64188;SDS011;50493;50.970;10.082;2023-04-28T05:06:39;12.57;;;8.43;;
64188;SDS011;50493;50.970;10.082;2023-04-28T05:09:04;11.32;;;7.43;;
64188;SDS011;50493;50.970;10.082;2023-04-28T05:11:30;13.35;;;8.02;;
64188;SDS011;50493;50.970;10.082;2023-04-28T05:13:55;14.15;;;7.82;;
64188;SDS011;50493;50.970;10.082;2023-04-28T05:16:20;14.02;;;8.38;;
64188;SDS011;50493;50.970;10.082;2023-04-28T05:18:46;15.73;;;9.32;;
64188;SDS011;50493;50.970;10.082;2023-04-28T05:21:11;16.92;;;10.07;;
64188;SDS011;50493;50.970;10.082;2023-04-28T05:23:38;14.13;;;8.32;;
64188;SDS011;50493;50.970;10.082;2023-04-28T05:26:03;14.07;;;8.60;;
64188;SDS011;50493;50.970;10.082;2023-04-28T05:28:29;13.43;;;8.15;;
64188;SDS011;50493;50.970;10.082;2023-04-28T05:30:54;13.98;;;8.82;;
64188;SDS011;50493;50.970;10.082;2023-04-28T05:33:20;12.82;;;7.45;;
64188;SDS011;50493;50.970;10.082;2023-04-28T05:35:45;13.73;;;8.43;;
64188;SDS011;50493;50.970;10.082;2023-04-28T05:38:11;18.90;;;11.98;;
64188;SDS011;50493;50.970;10.082;2023-04-28T05:40:37;20.17;;;11.48;;
64188;SDS011;50493;50.970;10.082;2023-04-28T05:43:03;18.95;;;10.98;;
64188;SDS011;50493;50.970;10.082;2023-04-28T05:45:28;21.60;;;11.07;;
64188;SDS011;50493;50.970;10.082;2023-04-28T05:47:54;17.23;;;10.40;;
64188;SDS011;50493;50.970;10.082;2023-04-28T05:50:19;20.15;;;11.15;;
64188;SDS011;50493;50.970;10.082;2023-04-28T05:52:45;18.33;;;10.90;;
64188;SDS011;50493;50.970;10.082;2023-04-28T05:55:11;18.60;;;11.15;;
64188;SDS011;50493;50.970;10.082;2023-04-28T05:57:37;16.58;;;10.35;;
64188;SDS011;50493;50.970;10.082;2023-04-28T06:00:03;19.27;;;11.18;;
64188;SDS011;50493;50.970;10.082;2023-04-28T06:02:29;19.45;;;12.55;;
64188;SDS011;50493;50.970;10.082;2023-04-28T06:04:54;19.42;;;10.85;;
64188;SDS011;50493;50.970;10.082;2023-04-28T06:07:20;18.13;;;11.18;;
64188;SDS011;50493;50.970;10.082;2023-04-28T06:09:45;16.05;;;10.27;;
64188;SDS011;50493;50.970;10.082;2023-04-28T06:12:11;16.73;;;10.57;;
64188;SDS011;50493;50.970;10.082;2023-04-28T06:14:38;17.98;;;10.32;;
64188;SDS011;50493;50.970;10.082;2023-04-28T06:17:04;16.77;;;9.45;;
64188;SDS011;50493;50.970;10.082;2023-04-28T06:19:30;20.05;;;11.95;;
64188;SDS011;50493;50.970;10.082;2023-04-28T06:21:55;17.08;;;10.23;;
64188;SDS011;50493;50.970;10.082;2023-04-28T06:24:21;19.50;;;12.35;;
64188;SDS011;50493;50.970;10.082;2023-04-28T06:26:46;14.70;;;9.80;;
64188;SDS011;50493;50.970;10.082;2023-04-28T06:29:11;16.50;;;10.48;;
64188;SDS011;50493;50.970;10.082;2023-04-28T06:31:38;15.02;;;9.60;;
64188;SDS011;50493;50.970;10.082;2023-04-28T06:34:03;20.70;;;12.23;;
64188;SDS011;50493;50.970;10.082;2023-04-28T06:36:29;16.02;;;10.30;;
64188;SDS011;50493;50.970;10.082;2023-04-28T06:38:54;13.82;;;9.20;;
64188;SDS011;50493;50.970;10.082;2023-04-28T06:41:20;17.65;;;10.57;;
64188;SDS011;50493;50.970;10.082;2023-04-28T06:43:45;16.05;;;9.93;;
64188;SDS011;50493;50.970;10.082;2023-04-28T06:46:10;15.05;;;10.10;;
64188;SDS011;50493;50.970;10.082;2023-04-28T06:48:37;16.77;;;10.93;;
64188;SDS011;50493;50.970;10.082;2023-04-28T06:51:02;22.30;;;12.38;;
64188;SDS011;50493;50.970;10.082;2023-04-28T06:53:28;18.83;;;11.63;;
64188;SDS011;50493;50.970;10.082;2023-04-28T06:55:53;26.70;;;15.85;;
64188;SDS011;50493;50.970;10.082;2023-04-28T06:58:20;24.35;;;13.95;;
64188;SDS011;50493;50.970;10.082;2023-04-28T07:00:45;19.45;;;12.27;;
64188;SDS011;50493;50.970;10.082;2023-04-28T07:03:11;28.20;;;16.35;;
64188;SDS011;50493;50.970;10.082;2023-04-28T07:05:38;23.85;;;15.07;;
64188;SDS011;50493;50.970;10.082;2023-04-28T07:08:03;20.48;;;11.60;;
64188;SDS011;50493;50.970;10.082;2023-04-28T07:10:29;18.80;;;11.27;;
64188;SDS011;50493;50.970;10.082;2023-04-28T07:12:54;18.95;;;11.50;;
64188;SDS011;50493;50.970;10.082;2023-04-28T07:15:20;21.85;;;13.38;;
64188;SDS011;50493;50.970;10.082;2023-04-28T07:17:45;17.85;;;11.23;;
64188;SDS011;50493;50.970;10.082;2023-04-28T07:20:11;14.73;;;9.60;;
64188;SDS011;50493;50.970;10.082;2023-04-28T07:22:38;15.82;;;9.70;;
64188;SDS011;50493;50.970;10.082;2023-04-28T07:25:04;14.95;;;9.20;;
64188;SDS011;50493;50.970;10.082;2023-04-28T07:27:30;18.70;;;11.30;;
64188;SDS011;50493;50.970;10.082;2023-04-28T07:29:56;17.27;;;9.70;;
64188;SDS011;50493;50.970;10.082;2023-04-28T07:32:21;15.80;;;10.27;;
64188;SDS011;50493;50.970;10.082;2023-04-28T07:34:48;18.40;;;11.20;;
64188;SDS011;50493;50.970;10.082;2023-04-28T07:37:13;24.77;;;14.88;;
64188;SDS011;50493;50.970;10.082;2023-04-28T07:39:40;23.42;;;15.35;;
64188;SDS011;50493;50.970;10.082;2023-04-28T07:42:06;24.67;;;14.50;;
64188;SDS011;50493;50.970;10.082;2023-04-28T07:44:31;30.88;;;19.42;;
64188;SDS011;50493;50.970;10.082;2023-04-28T07:46:57;31.00;;;18.15;;
64188;SDS011;50493;50.970;10.082;2023-04-28T07:49:23;17.98;;;12.05;;
64188;SDS011;50493;50.970;10.082;2023-04-28T07:51:49;20.60;;;12.35;;
64188;SDS011;50493;50.970;10.082;2023-04-28T07:54:17;18.17;;;11.45;;
64188;SDS011;50493;50.970;10.082;2023-04-28T07:56:44;16.63;;;10.48;;
64188;SDS011;50493;50.970;10.082;2023-04-28T07:59:09;15.85;;;10.25;;
64188;SDS011;50493;50.970;10.082;2023-04-28T08:01:35;16.70;;;10.80;;
64188;SDS011;50493;50.970;10.082;2023-04-28T08:04:00;20.08;;;12.88;;
64188;SDS011;50493;50.970;10.082;2023-04-28T08:06:25;19.42;;;12.43;;
64188;SDS011;50493;50.970;10.082;2023-04-28T08:08:51;27.95;;;16.95;;
64188;SDS011;50493;50.970;10.082;2023-04-28T08:11:18;24.85;;;16.15;;
64188;SDS011;50493;50.970;10.082;2023-04-28T08:13:45;19.25;;;11.57;;
64188;SDS011;50493;50.970;10.082;2023-04-28T08:16:11;29.98;;;17.05;;
64188;SDS011;50493;50.970;10.082;2023-04-28T08:18:36;17.77;;;10.52;;
64188;SDS011;50493;50.970;10.082;2023-04-28T08:21:01;15.70;;;9.98;;
64188;SDS011;50493;50.970;10.082;2023-04-28T08:23:27;15.65;;;9.70;;
64188;SDS011;50493;50.970;10.082;2023-04-28T08:25:54;15.07;;;9.43;;
64188;SDS011;50493;50.970;10.082;2023-04-28T08:28:20;14.07;;;9.48;;
64188;SDS011;50493;50.970;10.082;2023-04-28T08:30:46;14.07;;;8.63;;
64188;SDS011;50493;50.970;10.082;2023-04-28T08:33:12;22.35;;;14.55;;
64188;SDS011;50493;50.970;10.082;2023-04-28T08:35:37;16.33;;;10.57;;
64188;SDS011;50493;50.970;10.082;2023-04-28T08:38:02;13.52;;;9.18;;
64188;SDS011;50493;50.970;10.082;2023-04-28T08:40:28;18.63;;;12.93;;
64188;SDS011;50493;50.970;10.082;2023-04-28T08:42:55;22.95;;;14.25;;
64188;SDS011;50493;50.970;10.082;2023-04-28T08:45:21;15.50;;;9.77;;
64188;SDS011;50493;50.970;10.082;2023-04-28T08:47:49;15.18;;;9.43;;
64188;SDS011;50493;50.970;10.082;2023-04-28T08:50:15;13.13;;;8.98;;
64188;SDS011;50493;50.970;10.082;2023-04-28T08:52:45;14.40;;;9.25;;
64188;SDS011;50493;50.970;10.082;2023-04-28T08:55:11;13.85;;;9.00;;
64188;SDS011;50493;50.970;10.082;2023-04-28T08:57:38;20.25;;;14.52;;
64188;SDS011;50493;50.970;10.082;2023-04-28T09:00:07;16.25;;;10.10;;
64188;SDS011;50493;50.970;10.082;2023-04-28T09:02:33;12.63;;;8.95;;
64188;SDS011;50493;50.970;10.082;2023-04-28T09:05:00;15.05;;;9.70;;
64188;SDS011;50493;50.970;10.082;2023-04-28T09:07:26;14.38;;;8.80;;
64188;SDS011;50493;50.970;10.082;2023-04-28T09:10:03;13.90;;;8.75;;
64188;SDS011;50493;50.970;10.082;2023-04-28T09:12:40;19.08;;;12.88;;
64188;SDS011;50493;50.970;10.082;2023-04-28T09:15:06;13.95;;;9.05;;
64188;SDS011;50493;50.970;10.082;2023-04-28T09:17:34;15.10;;;9.05;;
64188;SDS011;50493;50.970;10.082;2023-04-28T09:20:19;15.57;;;9.27;;
64188;SDS011;50493;50.970;10.082;2023-04-28T09:22:45;15.90;;;10.10;;
64188;SDS011;50493;50.970;10.082;2023-04-28T09:25:10;24.35;;;15.30;;
64188;SDS011;50493;50.970;10.082;2023-04-28T09:27:36;21.17;;;13.73;;
64188;SDS011;50493;50.970;10.082;2023-04-28T09:30:02;16.23;;;9.70;;
64188;SDS011;50493;50.970;10.082;2023-04-28T09:32:28;24.15;;;16.60;;
64188;SDS011;50493;50.970;10.082;2023-04-28T09:34:54;22.00;;;14.43;;
64188;SDS011;50493;50.970;10.082;2023-04-28T09:37:24;20.50;;;13.30;;
64188;SDS011;50493;50.970;10.082;2023-04-28T09:39:51;14.10;;;9.35;;
64188;SDS011;50493;50.970;10.082;2023-04-28T09:42:29;15.27;;;11.40;;
64188;SDS011;50493;50.970;10.082;2023-04-28T09:44:59;18.52;;;11.02;;
64188;SDS011;50493;50.970;10.082;2023-04-28T09:47:26;14.38;;;9.50;;
64188;SDS011;50493;50.970;10.082;2023-04-28T09:49:54;13.45;;;9.30;;
64188;SDS011;50493;50.970;10.082;2023-04-28T09:52:21;13.55;;;9.80;;
64188;SDS011;50493;50.970;10.082;2023-04-28T09:54:48;14.13;;;8.75;;
64188;SDS011;50493;50.970;10.082;2023-04-28T09:57:14;14.18;;;8.82;;
64188;SDS011;50493;50.970;10.082;2023-04-28T09:59:41;12.50;;;8.02;;
64188;SDS011;50493;50.970;10.082;2023-04-28T10:02:10;12.57;;;8.40;;
64188;SDS011;50493;50.970;10.082;2023-04-28T10:04:37;12.73;;;8.38;;
64188;SDS011;50493;50.970;10.082;2023-04-28T10:07:04;11.48;;;8.10;;
64188;SDS011;50493;50.970;10.082;2023-04-28T10:09:30;13.10;;;8.60;;
64188;SDS011;50493;50.970;10.082;2023-04-28T10:11:57;12.30;;;8.73;;
64188;SDS011;50493;50.970;10.082;2023-04-28T10:14:23;11.40;;;8.15;;
64188;SDS011;50493;50.970;10.082;2023-04-28T10:16:49;12.23;;;8.15;;
64188;SDS011;50493;50.970;10.082;2023-04-28T10:19:16;14.05;;;8.90;;
64188;SDS011;50493;50.970;10.082;2023-04-28T10:21:43;12.75;;;8.27;;
64188;SDS011;50493;50.970;10.082;2023-04-28T10:24:20;13.82;;;8.75;;
64188;SDS011;50493;50.970;10.082;2023-04-28T10:27:04;12.75;;;8.23;;
64188;SDS011;50493;50.970;10.082;2023-04-28T10:29:32;11.35;;;7.95;;
64188;SDS011;50493;50.970;10.082;2023-04-28T10:32:17;13.40;;;8.23;;
64188;SDS011;50493;50.970;10.082;2023-04-28T10:34:45;12.98;;;8.40;;
64188;SDS011;50493;50.970;10.082;2023-04-28T10:37:11;11.77;;;8.13;;
64188;SDS011;50493;50.970;10.082;2023-04-28T10:39:39;12.25;;;8.18;;
64188;SDS011;50493;50.970;10.082;2023-04-28T10:42:06;12.90;;;9.77;;
64188;SDS011;50493;50.970;10.082;2023-04-28T10:45:07;17.13;;;9.48;;
64188;SDS011;50493;50.970;10.082;2023-04-28T10:47:42;13.20;;;9.10;;
64188;SDS011;50493;50.970;10.082;2023-04-28T10:50:28;13.57;;;9.52;;
64188;SDS011;50493;50.970;10.082;2023-04-28T10:52:55;12.65;;;7.35;;
64188;SDS011;50493;50.970;10.082;2023-04-28T10:55:27;13.65;;;9.40;;
64188;SDS011;50493;50.970;10.082;2023-04-28T11:03:49;14.88;;;11.52;;
64188;SDS011;50493;50.970;10.082;2023-04-28T11:06:19;14.05;;;8.85;;
64188;SDS011;50493;50.970;10.082;2023-04-28T11:08:46;14.38;;;9.35;;
64188;SDS011;50493;50.970;10.082;2023-04-28T11:11:21;12.88;;;9.13;;
64188;SDS011;50493;50.970;10.082;2023-04-28T11:13:51;13.77;;;9.32;;
64188;SDS011;50493;50.970;10.082;2023-04-28T11:16:18;13.80;;;9.25;;
64188;SDS011;50493;50.970;10.082;2023-04-28T11:18:50;12.90;;;9.30;;
64188;SDS011;50493;50.970;10.082;2023-04-28T11:21:18;13.98;;;10.20;;
64188;SDS011;50493;50.970;10.082;2023-04-28T11:23:43;13.77;;;9.15;;
64188;SDS011;50493;50.970;10.082;2023-04-28T11:26:09;11.18;;;8.93;;
64188;SDS011;50493;50.970;10.082;2023-04-28T11:28:35;14.15;;;9.23;;
64188;SDS011;50493;50.970;10.082;2023-04-28T11:31:12;14.70;;;9.43;;
64188;SDS011;50493;50.970;10.082;2023-04-28T11:33:43;13.57;;;9.77;;
64188;SDS011;50493;50.970;10.082;2023-04-28T11:36:20;12.57;;;9.45;;
64188;SDS011;50493;50.970;10.082;2023-04-28T11:38:46;13.63;;;9.45;;
64188;SDS011;50493;50.970;10.082;2023-04-28T11:41:13;13.07;;;9.80;;
64188;SDS011;50493;50.970;10.082;2023-04-28T11:43:38;10.25;;;7.65;;
64188;SDS011;50493;50.970;10.082;2023-04-28T11:46:04;9.40;;;7.05;;
64188;SDS011;50493;50.970;10.082;2023-04-28T11:48:32;18.30;;;9.98;;
64188;SDS011;50493;50.970;10.082;2023-04-28T11:50:58;11.32;;;7.55;;
64188;SDS011;50493;50.970;10.082;2023-04-28T11:53:39;11.57;;;8.23;;
64188;SDS011;50493;50.970;10.082;2023-04-28T11:56:05;12.95;;;9.00;;
64188;SDS011;50493;50.970;10.082;2023-04-28T11:58:33;12.50;;;9.55;;
64188;SDS011;50493;50.970;10.082;2023-04-28T12:01:05;12.40;;;9.15;;
64188;SDS011;50493;50.970;10.082;2023-04-28T12:03:33;12.05;;;9.30;;
64188;SDS011;50493;50.970;10.082;2023-04-28T12:06:06;9.23;;;7.60;;
64188;SDS011;50493;50.970;10.082;2023-04-28T12:08:32;11.70;;;9.68;;
64188;SDS011;50493;50.970;10.082;2023-04-28T12:11:07;13.63;;;10.05;;
64188;SDS011;50493;50.970;10.082;2023-04-28T12:13:37;11.02;;;7.65;;
64188;SDS011;50493;50.970;10.082;2023-04-28T12:16:03;14.55;;;9.93;;
64188;SDS011;50493;50.970;10.082;2023-04-28T12:18:30;9.93;;;6.18;;
64188;SDS011;50493;50.970;10.082;2023-04-28T12:20:57;14.13;;;9.68;;
64188;SDS011;50493;50.970;10.082;2023-04-28T12:23:27;12.18;;;8.88;;
64188;SDS011;50493;50.970;10.082;2023-04-28T12:25:54;14.27;;;10.20;;
64188;SDS011;50493;50.970;10.082;2023-04-28T12:28:19;12.45;;;9.63;;
64188;SDS011;50493;50.970;10.082;2023-04-28T12:30:45;11.52;;;8.23;;
64188;SDS011;50493;50.970;10.082;2023-04-28T12:33:23;10.38;;;7.60;;
64188;SDS011;50493;50.970;10.082;2023-04-28T12:35:49;9.68;;;7.22;;
64188;SDS011;50493;50.970;10.082;2023-04-28T12:38:16;10.05;;;7.53;;
64188;SDS011;50493;50.970;10.082;2023-04-28T12:40:41;11.40;;;8.52;;
64188;SDS011;50493;50.970;10.082;2023-04-28T12:43:07;10.73;;;7.70;;
64188;SDS011;50493;50.970;10.082;2023-04-28T12:45:32;11.77;;;8.48;;
64188;SDS011;50493;50.970;10.082;2023-04-28T12:47:58;11.38;;;7.85;;
64188;SDS011;50493;50.970;10.082;2023-04-28T12:50:23;10.32;;;7.57;;
64188;SDS011;50493;50.970;10.082;2023-04-28T12:52:49;6.45;;;5.22;;
64188;SDS011;50493;50.970;10.082;2023-04-28T12:55:16;12.00;;;8.48;;
64188;SDS011;50493;50.970;10.082;2023-04-28T12:57:42;10.20;;;8.23;;
64188;SDS011;50493;50.970;10.082;2023-04-28T13:00:07;9.38;;;6.88;;
64188;SDS011;50493;50.970;10.082;2023-04-28T13:02:34;8.52;;;6.57;;
64188;SDS011;50493;50.970;10.082;2023-04-28T13:04:59;10.45;;;7.03;;
64188;SDS011;50493;50.970;10.082;2023-04-28T13:07:25;7.00;;;5.38;;
64188;SDS011;50493;50.970;10.082;2023-04-28T13:09:51;9.50;;;7.65;;
64188;SDS011;50493;50.970;10.082;2023-04-28T13:12:18;9.60;;;7.05;;
64188;SDS011;50493;50.970;10.082;2023-04-28T13:14:43;7.60;;;6.18;;
64188;SDS011;50493;50.970;10.082;2023-04-28T13:17:09;9.38;;;6.80;;
64188;SDS011;50493;50.970;10.082;2023-04-28T13:19:35;9.55;;;5.95;;
64188;SDS011;50493;50.970;10.082;2023-04-28T13:22:00;9.38;;;6.93;;
64188;SDS011;50493;50.970;10.082;2023-04-28T13:24:29;8.48;;;6.65;;
64188;SDS011;50493;50.970;10.082;2023-04-28T13:26:54;9.40;;;7.20;;
64188;SDS011;50493;50.970;10.082;2023-04-28T13:29:21;8.73;;;6.03;;
64188;SDS011;50493;50.970;10.082;2023-04-28T13:31:46;6.07;;;4.35;;
64188;SDS011;50493;50.970;10.082;2023-04-28T13:34:11;7.20;;;5.60;;
64188;SDS011;50493;50.970;10.082;2023-04-28T13:36:41;9.45;;;6.63;;
64188;SDS011;50493;50.970;10.082;2023-04-28T13:39:06;8.77;;;6.25;;
64188;SDS011;50493;50.970;10.082;2023-04-28T13:41:35;9.55;;;6.20;;
64188;SDS011;50493;50.970;10.082;2023-04-28T13:44:00;8.40;;;5.43;;
64188;SDS011;50493;50.970;10.082;2023-04-28T13:46:27;9.48;;;6.55;;
64188;SDS011;50493;50.970;10.082;2023-04-28T13:48:52;9.45;;;6.97;;
64188;SDS011;50493;50.970;10.082;2023-04-28T13:51:18;7.80;;;5.63;;
64188;SDS011;50493;50.970;10.082;2023-04-28T13:53:44;11.02;;;7.50;;
64188;SDS011;50493;50.970;10.082;2023-04-28T13:56:09;10.52;;;7.25;;
64188;SDS011;50493;50.970;10.082;2023-04-28T13:58:35;12.13;;;7.60;;
64188;SDS011;50493;50.970;10.082;2023-04-28T14:01:01;10.27;;;6.53;;
64188;SDS011;50493;50.970;10.082;2023-04-28T14:03:29;10.32;;;8.13;;
64188;SDS011;50493;50.970;10.082;2023-04-28T14:05:55;10.50;;;7.57;;
64188;SDS011;50493;50.970;10.082;2023-04-28T14:08:22;10.15;;;6.97;;
64188;SDS011;50493;50.970;10.082;2023-04-28T14:10:48;11.25;;;7.43;;
64188;SDS011;50493;50.970;10.082;2023-04-28T14:13:14;10.48;;;6.75;;
64188;SDS011;50493;50.970;10.082;2023-04-28T14:15:40;10.50;;;6.40;;
64188;SDS011;50493;50.970;10.082;2023-04-28T14:18:06;10.10;;;7.10;;
64188;SDS011;50493;50.970;10.082;2023-04-28T14:20:33;6.72;;;5.18;;
64188;SDS011;50493;50.970;10.082;2023-04-28T14:22:58;10.43;;;6.95;;